Friendship, Indiana
Current Conditions -  °F | °C
As of 3:52 AM on Wednesday 22 Oct 2014 (Local Time) from KCVG Reporting Station
Overcast Overcast  
Wind Chill: 44°   Ceiling: 3100
Heat Index: 47°   Visibility: 10mi
Dew Point: 36°   Wind: 7mph
Humidity: 66%   Direction: 350°N
Pressure: 30.19"   Gusts: NA
Location:  38.97°N, 85.15°W
Report Text: KCVG 220752Z 35006KT 10SM OVC031 08/02 A3019 RMK AO2 SLP221 T00830022
Loading
Personal Weather Stations






























Interactive Weather Map New forecast layout! Learn more

10-Day Weather Forecast

Advertisements
Track Severe Weather on mobile